Time;durP1;ratioP1;P1;durP2;ratioP2;P2;SDS_P1;SDS_P2;PMS_P1;PMS_P2;Temp;Humidity;BMP_temperature;BMP_pressure;BME280_temperature;BME280_humidity;BME280_pressure;Samples;Min_cycle;Max_cycle;Signal;HPM_P1;HPM_P2
2022/10/20 00:01:25;;;;;;;;;;;9.90;99.90;;;;;;5072138;28;20380;-83
2022/10/20 00:03:51;;;;;;;;;;;9.90;99.90;;;;;;5072045;28;19909;-83
2022/10/20 00:06:18;;;;;;;;;;;9.90;99.90;;;;;;5091981;28;20293;-83
2022/10/20 00:08:44;;;;;;;;;;;9.90;99.90;;;;;;5093263;28;19915;-83
2022/10/20 00:11:10;;;;;;;;;;;10.00;99.90;;;;;;5093245;28;19912;-83
2022/10/20 00:13:36;;;;;;;;;;;10.00;99.90;;;;;;5094065;28;19953;-83
2022/10/20 00:16:02;;;;;;;;;;;10.10;99.90;;;;;;5079061;28;19935;-83
2022/10/20 00:18:27;;;;;;;;;;;10.10;99.90;;;;;;5075186;28;20018;-83
2022/10/20 00:20:53;;;;;;;;;;;10.20;99.90;;;;;;5075691;28;19919;-83
2022/10/20 00:23:19;;;;;;;;;;;10.20;99.90;;;;;;5073364;28;20030;-83
2022/10/20 00:25:44;;;;;;;;;;;10.20;99.90;;;;;;5074586;28;19909;-81
2022/10/20 00:28:10;;;;;;;;;;;10.20;99.90;;;;;;5075357;28;20284;-81
2022/10/20 00:30:36;;;;;;;;;;;10.20;99.90;;;;;;5073710;28;19912;-80
2022/10/20 00:33:03;;;;;;;;;;;10.30;99.90;;;;;;5072041;28;19927;-81
2022/10/20 00:35:29;;;;;;;;;;;10.30;99.90;;;;;;5090745;28;19912;-81
2022/10/20 00:37:55;;;;;;;;;;;10.30;99.90;;;;;;5072700;28;19924;-81
2022/10/20 00:40:20;;;;;;;;;;;10.40;99.90;;;;;;5073225;28;19916;-81
2022/10/20 00:42:46;;;;;;;;;;;10.40;99.90;;;;;;5056698;28;20465;-81
2022/10/20 00:45:13;;;;;;;;;;;10.40;99.90;;;;;;5076029;28;20007;-81
2022/10/20 00:47:45;;;;;;;;;;;10.40;99.90;;;;;;5073338;28;19908;-81
2022/10/20 00:50:20;;;;;;;;;;;10.40;99.90;;;;;;5073152;28;19908;-81
2022/10/20 00:52:45;;;;;;;;;;;10.40;99.90;;;;;;5071922;28;19915;-81
2022/10/20 00:55:12;;;;;;;;;;;10.40;99.90;;;;;;5075975;28;19908;-81
2022/10/20 00:57:38;;;;;;;;;;;10.40;99.90;;;;;;5075406;28;19927;-83
2022/10/20 01:00:04;;;;;;;;;;;10.40;99.90;;;;;;5073173;28;19913;-83
2022/10/20 01:02:30;;;;;;;;;;;10.40;99.90;;;;;;5073487;28;19966;-83
2022/10/20 01:04:55;;;;;;;;;;;10.40;99.90;;;;;;5075658;28;19956;-83
2022/10/20 01:07:21;;;;;;;;;;;10.40;99.90;;;;;;5073349;28;19916;-83
2022/10/20 01:09:47;;;;;;;;;;;10.40;99.90;;;;;;5075554;28;19912;-83
2022/10/20 01:12:31;;;;;;;;;;;10.40;99.90;;;;;;5072480;28;19916;-83
2022/10/20 01:15:15;;;;;;;;;;;10.40;99.90;;;;;;5073003;28;19953;-83
2022/10/20 01:17:59;;;;;;;;;;;10.40;99.90;;;;;;5073023;28;19913;-83
2022/10/20 01:20:28;;;;;;;;;;;10.40;99.90;;;;;;5071943;28;19909;-82
2022/10/20 01:23:05;;;;;;;;;;;10.40;99.90;;;;;;5068521;28;19912;-83
2022/10/20 01:25:37;;;;;;;;;;;10.40;99.90;;;;;;5073135;28;19912;-83
2022/10/20 01:28:16;;;;;;;;;;;10.40;99.90;;;;;;5074068;28;20384;-83
2022/10/20 01:30:44;;;;;;;;;;;10.40;99.90;;;;;;5071102;28;19928;-83
2022/10/20 01:33:16;;;;;;;;;;;10.40;99.90;;;;;;5070085;28;19952;-83
2022/10/20 01:35:45;;;;;;;;;;;10.40;99.90;;;;;;5058989;28;19909;-83
2022/10/20 01:38:15;;;;;;;;;;;10.40;99.90;;;;;;5071585;28;19923;-83
2022/10/20 01:40:43;;;;;;;;;;;10.40;99.90;;;;;;5073916;28;20368;-83
2022/10/20 01:43:11;;;;;;;;;;;10.40;99.90;;;;;;5074003;28;19915;-83
2022/10/20 01:45:38;;;;;;;;;;;10.40;99.90;;;;;;5075768;28;20003;-83
2022/10/20 01:48:05;;;;;;;;;;;10.40;99.90;;;;;;5076101;28;19909;-83
2022/10/20 01:50:32;;;;;;;;;;;10.40;99.90;;;;;;5074554;28;19912;-83
2022/10/20 01:52:58;;;;;;;;;;;10.40;99.90;;;;;;5075487;28;19913;-81
2022/10/20 01:55:23;;;;;;;;;;;10.40;99.90;;;;;;5075514;28;20288;-83
2022/10/20 01:58:07;;;;;;;;;;;10.30;99.90;;;;;;5076080;28;20318;-83
2022/10/20 02:00:35;;;;;;;;;;;10.30;99.90;;;;;;5074418;28;20284;-83
2022/10/20 02:03:03;;;;;;;;;;;10.30;99.90;;;;;;5075381;28;20353;-83
2022/10/20 02:05:40;;;;;;;;;;;10.20;99.90;;;;;;5074259;28;19916;-83
2022/10/20 02:08:26;;;;;;;;;;;10.20;99.90;;;;;;5075757;28;19916;-83
2022/10/20 02:10:55;;;;;;;;;;;10.20;99.90;;;;;;5074798;28;19912;-83
2022/10/20 02:13:20;;;;;;;;;;;10.20;99.90;;;;;;5075095;28;19912;-83
2022/10/20 02:15:49;;;;;;;;;;;10.20;99.90;;;;;;5073362;28;20012;-82
2022/10/20 02:18:17;;;;;;;;;;;10.20;99.90;;;;;;5073954;28;19963;-82
2022/10/20 02:20:46;;;;;;;;;;;10.20;99.90;;;;;;5075222;28;20228;-81
2022/10/20 02:23:11;;;;;;;;;;;10.20;99.90;;;;;;5073917;28;19915;-80
2022/10/20 02:25:38;;;;;;;;;;;10.20;99.90;;;;;;5072760;28;19913;-81
2022/10/20 02:28:04;;;;;;;;;;;10.20;99.90;;;;;;5073131;28;19992;-81
2022/10/20 02:30:30;;;;;;;;;;;10.10;99.90;;;;;;5072099;28;19919;-81
2022/10/20 02:32:56;;;;;;;;;;;10.10;99.90;;;;;;5056194;28;19912;-80
2022/10/20 02:35:24;;;;;;;;;;;10.10;99.90;;;;;;5073410;28;20380;-80
2022/10/20 02:37:50;;;;;;;;;;;10.10;99.90;;;;;;5073059;28;19923;-80
2022/10/20 02:40:16;;;;;;;;;;;10.10;99.90;;;;;;5073512;28;19912;-80
2022/10/20 02:42:42;;;;;;;;;;;10.10;99.90;;;;;;5073736;28;19947;-80
2022/10/20 02:45:08;;;;;;;;;;;10.00;99.90;;;;;;5073566;28;19912;-80
2022/10/20 02:47:33;;;;;;;;;;;10.00;99.90;;;;;;5073384;28;19913;-81
2022/10/20 02:50:00;;;;;;;;;;;10.00;99.90;;;;;;5075235;28;20001;-80
2022/10/20 02:52:26;;;;;;;;;;;10.10;99.90;;;;;;5073954;28;19919;-81
2022/10/20 02:54:51;;;;;;;;;;;10.00;99.90;;;;;;5072223;28;19913;-81
2022/10/20 02:57:17;;;;;;;;;;;10.00;99.90;;;;;;5070951;28;20043;-80
2022/10/20 02:59:42;;;;;;;;;;;10.00;99.90;;;;;;5072354;28;19950;-80
2022/10/20 03:02:08;;;;;;;;;;;10.00;99.90;;;;;;5054696;28;20396;-81
2022/10/20 03:04:33;;;;;;;;;;;10.10;99.90;;;;;;5074317;28;20355;-80
2022/10/20 03:06:59;;;;;;;;;;;10.10;99.90;;;;;;5073009;28;19912;-83
2022/10/20 03:09:24;;;;;;;;;;;10.10;99.90;;;;;;5073586;28;19913;-83
2022/10/20 03:11:50;;;;;;;;;;;10.10;99.90;;;;;;5073807;28;19965;-83
2022/10/20 03:14:15;;;;;;;;;;;10.10;99.90;;;;;;5072961;28;19912;-83
2022/10/20 03:16:41;;;;;;;;;;;10.10;99.90;;;;;;5070703;28;19916;-83
2022/10/20 03:19:06;;;;;;;;;;;10.00;99.90;;;;;;5070237;28;19927;-83
2022/10/20 03:21:32;;;;;;;;;;;10.00;99.90;;;;;;5050986;28;20333;-82
2022/10/20 03:23:58;;;;;;;;;;;10.10;99.90;;;;;;5073549;28;20315;-83
2022/10/20 03:26:23;;;;;;;;;;;10.10;99.90;;;;;;5073675;28;19920;-83
2022/10/20 03:28:49;;;;;;;;;;;10.10;99.90;;;;;;5073733;28;19912;-83
2022/10/20 03:31:14;;;;;;;;;;;10.10;99.90;;;;;;5072440;28;19912;-83
2022/10/20 03:33:40;;;;;;;;;;;10.10;99.90;;;;;;5073615;28;19969;-83
2022/10/20 03:36:05;;;;;;;;;;;10.10;99.90;;;;;;5072841;28;19913;-83
2022/10/20 03:38:31;;;;;;;;;;;10.10;99.90;;;;;;5073423;28;20288;-80
2022/10/20 03:40:56;;;;;;;;;;;10.10;99.90;;;;;;5072179;28;19912;-80
2022/10/20 03:43:22;;;;;;;;;;;10.00;99.90;;;;;;5072464;28;19913;-80
2022/10/20 03:45:47;;;;;;;;;;;10.10;99.90;;;;;;5072247;28;19915;-80
2022/10/20 03:48:13;;;;;;;;;;;10.00;99.90;;;;;;5072346;28;20360;-80
2022/10/20 03:50:39;;;;;;;;;;;10.00;99.90;;;;;;5074869;28;20376;-80
2022/10/20 03:53:05;;;;;;;;;;;10.00;99.90;;;;;;5077596;28;19908;-80
2022/10/20 03:55:31;;;;;;;;;;;10.10;99.90;;;;;;5077725;28;20387;-80
2022/10/20 03:57:56;;;;;;;;;;;10.00;99.90;;;;;;5076336;28;19962;-80
2022/10/20 04:00:22;;;;;;;;;;;10.00;99.90;;;;;;5095872;28;19934;-80
2022/10/20 04:02:48;;;;;;;;;;;10.00;99.90;;;;;;5096706;28;19916;-80
2022/10/20 04:05:14;;;;;;;;;;;10.00;99.90;;;;;;5095610;28;19912;-83
2022/10/20 04:07:40;;;;;;;;;;;10.00;99.90;;;;;;5094138;28;19912;-80
2022/10/20 04:10:06;;;;;;;;;;;10.00;99.90;;;;;;5088714;28;19913;-80
2022/10/20 04:12:31;;;;;;;;;;;10.00;99.90;;;;;;5095721;28;19908;-80
2022/10/20 04:14:57;;;;;;;;;;;9.90;99.90;;;;;;5073339;28;19912;-80
2022/10/20 04:17:22;;;;;;;;;;;9.90;99.90;;;;;;5093273;28;19913;-80
2022/10/20 04:19:48;;;;;;;;;;;9.90;99.90;;;;;;5092545;28;19917;-80
2022/10/20 04:22:13;;;;;;;;;;;9.90;99.90;;;;;;5090324;28;19958;-80
2022/10/20 04:24:39;;;;;;;;;;;9.90;99.90;;;;;;5094301;28;20258;-80
2022/10/20 04:27:05;;;;;;;;;;;9.90;99.90;;;;;;5094540;28;19913;-80
2022/10/20 04:29:30;;;;;;;;;;;9.80;99.90;;;;;;5089452;28;19912;-81
2022/10/20 04:31:56;;;;;;;;;;;9.80;99.90;;;;;;5082785;28;19909;-81
2022/10/20 04:34:22;;;;;;;;;;;9.80;99.90;;;;;;5084455;28;20336;-82
2022/10/20 04:36:47;;;;;;;;;;;9.80;99.90;;;;;;5062941;28;19944;-82
2022/10/20 04:39:13;;;;;;;;;;;9.70;99.90;;;;;;5087265;28;19952;-80
2022/10/20 04:41:39;;;;;;;;;;;9.70;99.90;;;;;;5083575;28;19909;-81
2022/10/20 04:44:04;;;;;;;;;;;9.70;99.90;;;;;;5082421;28;19966;-84
2022/10/20 04:46:30;;;;;;;;;;;9.60;99.90;;;;;;5079650;28;19916;-85
2022/10/20 04:48:55;;;;;;;;;;;9.60;99.90;;;;;;5079531;28;19951;-85
2022/10/20 04:51:21;;;;;;;;;;;9.60;99.90;;;;;;5080806;28;19952;-85
2022/10/20 04:53:46;;;;;;;;;;;9.70;99.90;;;;;;5069924;28;19916;-85
2022/10/20 04:56:17;;;;;;;;;;;9.60;99.90;;;;;;5069963;28;19923;-85
2022/10/20 04:58:46;;;;;;;;;;;9.60;99.90;;;;;;5074052;28;19924;-85
2022/10/20 05:01:11;;;;;;;;;;;9.50;99.90;;;;;;5079669;28;19963;-85
2022/10/20 05:03:37;;;;;;;;;;;9.60;99.90;;;;;;5080630;28;19916;-85
2022/10/20 05:06:11;;;;;;;;;;;9.50;99.90;;;;;;5080563;28;19912;-85
2022/10/20 05:08:37;;;;;;;;;;;9.60;99.90;;;;;;5080898;28;19909;-85
2022/10/20 05:11:03;;;;;;;;;;;9.60;99.90;;;;;;5080732;28;20426;-85
2022/10/20 05:13:28;;;;;;;;;;;9.50;99.90;;;;;;5080975;28;19913;-85
2022/10/20 05:15:54;;;;;;;;;;;9.50;99.90;;;;;;5063351;28;19916;-85
2022/10/20 05:18:19;;;;;;;;;;;9.50;99.90;;;;;;5079961;28;20340;-86
2022/10/20 05:20:45;;;;;;;;;;;9.50;99.90;;;;;;5076706;28;20388;-86
2022/10/20 05:23:10;;;;;;;;;;;9.50;99.90;;;;;;5078346;28;20062;-85
2022/10/20 05:25:36;;;;;;;;;;;9.40;99.90;;;;;;5077877;28;20333;-85
2022/10/20 05:28:02;;;;;;;;;;;9.40;99.90;;;;;;5078671;28;19912;-85
2022/10/20 05:30:28;;;;;;;;;;;9.40;99.90;;;;;;5075952;28;19919;-84
2022/10/20 05:32:53;;;;;;;;;;;9.40;99.90;;;;;;5077649;28;19913;-85
2022/10/20 05:35:19;;;;;;;;;;;9.40;99.90;;;;;;5076833;28;20368;-85
2022/10/20 05:37:44;;;;;;;;;;;9.40;99.90;;;;;;5075267;28;20432;-84
2022/10/20 05:40:10;;;;;;;;;;;9.40;99.90;;;;;;5078290;28;19944;-85
2022/10/20 05:42:35;;;;;;;;;;;9.30;99.90;;;;;;5075037;28;20319;-85
2022/10/20 05:45:01;;;;;;;;;;;9.30;99.90;;;;;;5078830;28;20383;-85
2022/10/20 05:47:26;;;;;;;;;;;9.40;99.90;;;;;;5077751;28;19913;-85
2022/10/20 05:49:52;;;;;;;;;;;9.30;99.90;;;;;;5060502;28;19912;-85
2022/10/20 05:52:17;;;;;;;;;;;9.40;99.90;;;;;;5077217;28;19913;-85
2022/10/20 05:54:43;;;;;;;;;;;9.40;99.90;;;;;;5077463;28;19913;-85
2022/10/20 05:57:08;;;;;;;;;;;9.40;99.90;;;;;;5077509;28;19913;-85
2022/10/20 05:59:34;;;;;;;;;;;9.30;99.90;;;;;;5059928;28;19966;-85
2022/10/20 06:02:00;;;;;;;;;;;9.30;99.90;;;;;;5060393;28;19925;-85
2022/10/20 06:04:26;;;;;;;;;;;9.30;99.90;;;;;;5060166;28;19912;-85
2022/10/20 06:06:53;;;;;;;;;;;9.30;99.90;;;;;;5058383;28;19913;-86
2022/10/20 06:09:19;;;;;;;;;;;9.30;99.90;;;;;;5077382;28;19913;-85
2022/10/20 06:11:44;;;;;;;;;;;9.20;99.90;;;;;;5057720;28;19964;-85
2022/10/20 06:14:10;;;;;;;;;;;9.20;99.90;;;;;;5057498;28;19921;-85
2022/10/20 06:16:36;;;;;;;;;;;9.10;99.90;;;;;;5073821;28;19909;-85
2022/10/20 06:19:01;;;;;;;;;;;9.00;99.90;;;;;;5055776;28;19939;-85
2022/10/20 06:21:28;;;;;;;;;;;8.90;99.90;;;;;;5075613;28;19916;-85
2022/10/20 06:23:54;;;;;;;;;;;8.90;99.90;;;;;;5057060;28;19920;-85
2022/10/20 06:26:23;;;;;;;;;;;8.90;99.90;;;;;;5073622;28;19931;-85
2022/10/20 06:28:52;;;;;;;;;;;8.80;99.90;;;;;;5089599;28;19962;-85
2022/10/20 06:31:18;;;;;;;;;;;8.90;99.90;;;;;;5074772;28;19963;-85
2022/10/20 06:33:44;;;;;;;;;;;8.90;99.90;;;;;;5076137;28;19908;-85
2022/10/20 06:36:10;;;;;;;;;;;8.90;99.90;;;;;;5075192;28;19916;-85
2022/10/20 06:38:35;;;;;;;;;;;8.90;99.90;;;;;;5076307;28;19916;-85
2022/10/20 06:41:02;;;;;;;;;;;8.90;99.90;;;;;;5054991;28;19998;-85
2022/10/20 06:43:27;;;;;;;;;;;8.90;99.90;;;;;;5071781;28;19916;-85
2022/10/20 06:45:54;;;;;;;;;;;8.90;99.90;;;;;;5074183;28;19908;-85
2022/10/20 06:48:20;;;;;;;;;;;9.00;99.90;;;;;;5074710;28;19908;-85
2022/10/20 06:50:46;;;;;;;;;;;9.00;99.90;;;;;;5072786;28;19927;-86
2022/10/20 06:53:11;;;;;;;;;;;9.10;99.90;;;;;;5055442;28;19912;-85
2022/10/20 06:55:37;;;;;;;;;;;9.10;99.90;;;;;;5057313;28;19924;-84
2022/10/20 06:58:02;;;;;;;;;;;9.10;99.90;;;;;;5072610;28;19917;-85
2022/10/20 07:00:28;;;;;;;;;;;9.10;99.90;;;;;;5057680;28;19959;-85
2022/10/20 07:02:53;;;;;;;;;;;9.10;99.90;;;;;;5057946;28;19928;-85
2022/10/20 07:05:20;;;;;;;;;;;9.10;99.90;;;;;;5055429;28;19923;-85
2022/10/20 07:07:46;;;;;;;;;;;9.10;99.90;;;;;;5056390;28;19913;-85
2022/10/20 07:10:11;;;;;;;;;;;9.10;99.90;;;;;;5054264;28;19920;-85
2022/10/20 07:12:37;;;;;;;;;;;9.10;99.90;;;;;;5058390;28;19912;-85
2022/10/20 07:15:03;;;;;;;;;;;9.10;99.90;;;;;;5072538;28;19916;-85
2022/10/20 07:17:28;;;;;;;;;;;9.10;99.90;;;;;;5054886;28;19927;-85
2022/10/20 07:19:54;;;;;;;;;;;9.20;99.90;;;;;;5054575;28;19913;-85
2022/10/20 07:22:19;;;;;;;;;;;9.20;99.90;;;;;;5055000;28;19913;-85
2022/10/20 07:24:45;;;;;;;;;;;9.20;99.90;;;;;;5055985;28;19912;-85
2022/10/20 07:27:10;;;;;;;;;;;9.20;99.90;;;;;;5059377;28;19917;-85
2022/10/20 07:29:36;;;;;;;;;;;9.30;99.90;;;;;;5078315;28;19920;-85
2022/10/20 07:32:01;;;;;;;;;;;9.40;99.90;;;;;;5061836;28;19916;-85
2022/10/20 07:34:27;;;;;;;;;;;9.40;99.90;;;;;;5084268;28;19999;-85
2022/10/20 07:36:53;;;;;;;;;;;9.50;99.90;;;;;;5082683;28;19912;-85
2022/10/20 07:39:19;;;;;;;;;;;9.60;99.90;;;;;;5075463;28;19943;-85
2022/10/20 07:41:46;;;;;;;;;;;9.60;99.90;;;;;;5076726;28;20380;-85
2022/10/20 07:44:12;;;;;;;;;;;9.70;99.90;;;;;;5062086;28;19962;-85
2022/10/20 07:46:37;;;;;;;;;;;9.70;99.90;;;;;;5076452;28;20303;-85
2022/10/20 07:49:03;;;;;;;;;;;9.80;99.90;;;;;;5077685;28;19920;-85
2022/10/20 07:51:29;;;;;;;;;;;9.80;99.90;;;;;;5059386;28;19920;-84
2022/10/20 07:54:03;;;;;;;;;;;9.90;99.90;;;;;;5077591;28;19912;-85
2022/10/20 07:56:30;;;;;;;;;;;10.00;99.90;;;;;;5076366;28;19915;-85
2022/10/20 07:58:55;;;;;;;;;;;10.10;99.90;;;;;;5060099;28;19920;-85
2022/10/20 08:01:21;;;;;;;;;;;10.20;99.90;;;;;;5059268;28;19917;-85
2022/10/20 08:03:47;;;;;;;;;;;10.20;99.90;;;;;;5059815;28;19939;-85
2022/10/20 08:06:12;;;;;;;;;;;10.30;99.90;;;;;;5096108;28;19908;-85
2022/10/20 08:08:38;;;;;;;;;;;10.40;99.90;;;;;;5078138;28;19912;-85
2022/10/20 08:11:04;;;;;;;;;;;10.50;99.90;;;;;;5077909;28;19916;-85
2022/10/20 08:13:29;;;;;;;;;;;10.60;99.90;;;;;;5078826;28;20008;-85
2022/10/20 08:15:55;;;;;;;;;;;10.70;99.90;;;;;;5067913;22;19974;-73
2022/10/20 08:18:20;;;;;;;;;;;10.90;99.90;;;;;;5075871;28;19996;-72
2022/10/20 08:20:46;;;;;;;;;;;11.00;99.90;;;;;;5075489;28;19919;-73
2022/10/20 08:23:12;;;;;;;;;;;11.10;99.90;;;;;;5076918;28;20058;-73
2022/10/20 08:25:38;;;;;;;;;;;11.20;99.90;;;;;;5076600;28;19953;-73
2022/10/20 08:28:03;;;;;;;;;;;11.30;99.90;;;;;;5076594;28;19995;-73
2022/10/20 08:30:29;;;;;;;;;;;11.40;99.90;;;;;;5076636;28;20015;-73
2022/10/20 08:32:55;;;;;;;;;;;11.50;99.90;;;;;;5076263;28;19916;-73
2022/10/20 08:35:20;;;;;;;;;;;11.60;99.90;;;;;;5076529;28;20263;-73
2022/10/20 08:37:46;;;;;;;;;;;11.70;99.90;;;;;;5075823;28;20004;-73
2022/10/20 08:40:23;;;;;;;;;;;11.90;99.90;;;;;;5076150;28;19954;-73
2022/10/20 08:42:48;;;;;;;;;;;12.00;99.90;;;;;;5076287;28;19931;-73
2022/10/20 08:45:16;;;;;;;;;;;12.00;99.90;;;;;;5076116;28;20378;-73
2022/10/20 08:47:42;;;;;;;;;;;12.20;99.90;;;;;;5075998;28;19908;-73
2022/10/20 08:50:09;;;;;;;;;;;12.30;99.90;;;;;;5075985;28;19917;-73
2022/10/20 08:52:35;;;;;;;;;;;12.40;99.90;;;;;;5075889;28;19912;-73
2022/10/20 08:55:02;;;;;;;;;;;12.50;99.90;;;;;;5076146;28;19913;-73
2022/10/20 08:57:30;;;;;;;;;;;12.50;99.90;;;;;;5075748;28;19995;-73
2022/10/20 09:00:00;;;;;;;;;;;12.60;99.90;;;;;;5075793;28;19915;-73
2022/10/20 09:02:28;;;;;;;;;;;12.70;99.90;;;;;;5075932;28;19961;-73
2022/10/20 09:04:55;;;;;;;;;;;12.70;99.90;;;;;;5074474;28;20245;-73
2022/10/20 09:07:30;;;;;;;;;;;12.80;99.90;;;;;;5075709;28;20028;-73
2022/10/20 09:10:16;;;;;;;;;;;12.90;99.90;;;;;;5075604;28;20418;-73
2022/10/20 09:12:42;;;;;;;;;;;13.00;99.90;;;;;;5071463;28;19916;-73
2022/10/20 09:15:10;;;;;;;;;;;13.10;99.90;;;;;;5075390;28;19909;-73
2022/10/20 09:17:36;;;;;;;;;;;13.20;99.90;;;;;;5074395;28;19908;-73
2022/10/20 09:20:03;;;;;;;;;;;13.40;99.90;;;;;;5075464;28;20003;-73
2022/10/20 09:22:29;;;;;;;;;;;13.40;99.90;;;;;;5075483;28;19909;-73
2022/10/20 09:24:56;;;;;;;;;;;13.50;99.90;;;;;;5075315;28;19919;-73
2022/10/20 09:27:28;;;;;;;;;;;13.60;99.90;;;;;;5075225;28;19909;-73
2022/10/20 09:29:54;;;;;;;;;;;13.80;99.90;;;;;;5073868;28;19909;-73
2022/10/20 09:32:33;;;;;;;;;;;13.90;99.90;;;;;;5075055;28;19908;-73
2022/10/20 09:35:11;;;;;;;;;;;14.00;99.90;;;;;;5075060;28;19977;-73
2022/10/20 09:37:36;;;;;;;;;;;14.10;99.90;;;;;;5075219;28;19908;-73
2022/10/20 09:40:02;;;;;;;;;;;14.20;99.90;;;;;;5074965;28;19938;-73
2022/10/20 09:42:30;;;;;;;;;;;14.30;99.90;;;;;;5074869;28;19912;-73
2022/10/20 09:44:57;;;;;;;;;;;14.40;99.90;;;;;;5074873;28;20007;-73
2022/10/20 09:47:23;;;;;;;;;;;14.40;99.90;;;;;;5074592;28;20288;-73
2022/10/20 09:50:00;;;;;;;;;;;14.50;99.90;;;;;;5074111;28;19909;-73
2022/10/20 09:52:33;;;;;;;;;;;14.50;99.90;;;;;;5073413;28;20346;-73
2022/10/20 09:55:00;;;;;;;;;;;14.60;99.90;;;;;;5074997;28;19934;-73
2022/10/20 09:57:26;;;;;;;;;;;14.60;99.90;;;;;;5074515;28;19909;-73
2022/10/20 09:59:52;;;;;;;;;;;14.60;99.90;;;;;;5074577;28;19962;-73
2022/10/20 10:02:20;;;;;;;;;;;14.80;99.90;;;;;;5074454;28;19995;-72
2022/10/20 10:04:47;;;;;;;;;;;14.80;99.90;;;;;;5074513;28;19947;-73
2022/10/20 10:07:25;;;;;;;;;;;14.90;99.90;;;;;;5107137;28;19908;-73
2022/10/20 10:10:20;;;;;;;;;;;15.00;99.90;;;;;;5074391;28;19915;-73
2022/10/20 10:12:53;;;;;;;;;;;15.10;99.90;;;;;;5074914;28;19954;-72
2022/10/20 10:15:21;;;;;;;;;;;15.20;99.90;;;;;;5074126;28;19917;-73
2022/10/20 10:17:47;;;;;;;;;;;15.20;99.90;;;;;;5074246;28;19909;-73
2022/10/20 10:20:13;;;;;;;;;;;15.30;99.90;;;;;;5074251;28;19908;-73
2022/10/20 10:22:39;;;;;;;;;;;15.40;99.90;;;;;;5074083;28;19908;-73
2022/10/20 10:25:05;;;;;;;;;;;15.60;99.90;;;;;;5074105;28;19913;-73
2022/10/20 10:27:33;;;;;;;;;;;15.70;99.90;;;;;;5074072;28;20389;-73
2022/10/20 10:30:17;;;;;;;;;;;15.80;99.90;;;;;;5074580;28;19936;-73
2022/10/20 10:32:43;;;;;;;;;;;16.00;99.90;;;;;;5074057;28;20007;-72
2022/10/20 10:35:17;;;;;;;;;;;16.10;99.90;;;;;;5073964;28;19913;-73
2022/10/20 10:37:43;;;;;;;;;;;16.20;99.90;;;;;;5074195;28;19920;-73
2022/10/20 10:40:16;;;;;;;;;;;16.20;99.90;;;;;;5073884;28;19908;-72
2022/10/20 10:42:48;;;;;;;;;;;16.30;99.90;;;;;;5074065;28;19999;-72
2022/10/20 10:45:18;;;;;;;;;;;16.30;99.90;;;;;;5073844;28;19909;-72
2022/10/20 10:48:03;;;;;;;;;;;16.30;99.90;;;;;;5074048;28;19908;-72
2022/10/20 10:50:35;;;;;;;;;;;16.40;99.90;;;;;;5072554;28;19916;-73
2022/10/20 10:53:07;;;;;;;;;;;16.50;99.90;;;;;;5073855;28;19957;-72
2022/10/20 10:55:38;;;;;;;;;;;16.60;99.90;;;;;;5073721;28;20008;-72
2022/10/20 10:58:19;;;;;;;;;;;16.70;99.90;;;;;;5073952;28;19913;-72
2022/10/20 11:00:54;;;;;;;;;;;16.80;99.90;;;;;;5073466;28;19958;-73
2022/10/20 11:03:22;;;;;;;;;;;16.90;99.90;;;;;;5073553;28;19912;-72
2022/10/20 11:06:03;;;;;;;;;;;17.00;99.90;;;;;;5073612;28;19908;-72
2022/10/20 11:08:41;;;;;;;;;;;17.10;99.90;;;;;;5073835;28;20004;-72
2022/10/20 11:11:12;;;;;;;;;;;17.20;99.90;;;;;;5073540;28;19909;-72
2022/10/20 11:13:56;;;;;;;;;;;17.20;99.90;;;;;;5073650;28;19956;-72
2022/10/20 11:16:24;;;;;;;;;;;17.30;99.90;;;;;;5073319;28;20394;-73
2022/10/20 11:18:59;;;;;;;;;;;17.40;99.90;;;;;;5073330;28;19934;-72
2022/10/20 11:21:27;;;;;;;;;;;17.50;99.90;;;;;;5073493;28;19908;-72
2022/10/20 11:24:02;;;;;;;;;;;17.70;99.90;;;;;;5073373;28;19995;-72
2022/10/20 11:26:31;;;;;;;;;;;17.80;99.90;;;;;;5073365;28;20024;-72
2022/10/20 11:28:58;;;;;;;;;;;17.90;99.90;;;;;;5073559;28;19912;-72
2022/10/20 11:31:32;;;;;;;;;;;18.00;99.90;;;;;;5073367;28;19953;-72
2022/10/20 11:34:05;;;;;;;;;;;18.10;99.90;;;;;;5073246;28;19957;-72
2022/10/20 11:36:33;;;;;;;;;;;18.20;99.90;;;;;;5073196;28;19915;-72
2022/10/20 11:38:59;;;;;;;;;;;18.30;99.90;;;;;;5073522;28;19913;-71
2022/10/20 11:41:36;;;;;;;;;;;18.30;99.90;;;;;;5071463;28;19917;-72
2022/10/20 11:44:06;;;;;;;;;;;18.40;99.90;;;;;;5072944;28;20360;-72
2022/10/20 11:46:46;;;;;;;;;;;18.40;99.90;;;;;;5053434;28;19913;-72
2022/10/20 11:49:12;;;;;;;;;;;18.40;99.90;;;;;;5064832;28;19979;-72
2022/10/20 11:51:56;;;;;;;;;;;18.50;99.90;;;;;;5073487;28;20379;-72
2022/10/20 11:54:22;;;;;;;;;;;18.60;99.90;;;;;;5077233;28;19912;-72
2022/10/20 11:57:01;;;;;;;;;;;18.70;99.90;;;;;;5093288;28;19912;-72
2022/10/20 11:59:43;;;;;;;;;;;18.80;99.90;;;;;;5114867;28;19916;-72
2022/10/20 12:02:28;;;;;;;;;;;18.90;99.90;;;;;;5093582;28;19908;-72
2022/10/20 12:05:12;;;;;;;;;;;18.90;99.90;;;;;;5093145;28;19991;-72
2022/10/20 12:07:43;;;;;;;;;;;19.00;99.90;;;;;;5093498;28;19912;-72
2022/10/20 12:10:32;;;;;;;;;;;19.10;99.90;;;;;;5092463;28;19909;-72
2022/10/20 12:13:06;;;;;;;;;;;19.10;99.90;;;;;;5056531;28;19913;-72
2022/10/20 12:15:31;;;;;;;;;;;19.10;99.90;;;;;;5076853;28;20316;-71
2022/10/20 12:18:02;;;;;;;;;;;19.20;99.90;;;;;;5092427;28;19952;-72
2022/10/20 12:20:27;;;;;;;;;;;19.20;99.90;;;;;;5096663;28;19916;-72
2022/10/20 12:22:54;;;;;;;;;;;19.20;99.90;;;;;;5096147;28;19981;-72
2022/10/20 12:25:25;;;;;;;;;;;19.30;99.90;;;;;;5096314;28;19912;-72
2022/10/20 12:28:10;;;;;;;;;;;19.30;99.90;;;;;;5096562;28;19919;-71
2022/10/20 12:30:38;;;;;;;;;;;19.40;99.90;;;;;;5129505;27;19908;-71
2022/10/20 12:33:27;;;;;;;;;;;19.40;99.90;;;;;;5096316;28;19908;-71
2022/10/20 12:35:57;;;;;;;;;;;19.50;99.90;;;;;;5058913;28;19920;-72
2022/10/20 12:38:23;;;;;;;;;;;19.50;99.90;;;;;;5075274;28;19924;-72
2022/10/20 12:40:56;;;;;;;;;;;19.40;99.90;;;;;;5076114;28;19912;-71
2022/10/20 12:43:45;;;;;;;;;;;19.50;99.90;;;;;;5075274;28;19913;-71
2022/10/20 12:46:14;;;;;;;;;;;19.50;99.90;;;;;;5074937;28;19908;-71
2022/10/20 12:48:42;;;;;;;;;;;19.40;99.90;;;;;;5076175;28;20351;-71
2022/10/20 12:51:16;;;;;;;;;;;19.40;99.90;;;;;;5075888;28;19913;-71
2022/10/20 12:53:42;;;;;;;;;;;19.40;99.90;;;;;;5076324;28;20003;-70
2022/10/20 12:56:09;;;;;;;;;;;19.40;99.90;;;;;;5075856;28;19948;-69
2022/10/20 12:58:36;;;;;;;;;;;19.40;99.90;;;;;;5076019;28;20343;-69
2022/10/20 13:01:01;;;;;;;;;;;19.30;99.90;;;;;;5075766;28;20318;-69
2022/10/20 13:03:38;;;;;;;;;;;19.30;99.90;;;;;;5075688;28;19962;-70
2022/10/20 13:06:21;;;;;;;;;;;19.40;99.90;;;;;;5075645;28;19958;-69
2022/10/20 13:09:02;;;;;;;;;;;19.40;99.90;;;;;;5102965;28;20043;-70
2022/10/20 13:11:37;;;;;;;;;;;19.50;99.90;;;;;;5074753;28;19917;-70
2022/10/20 13:14:11;;;;;;;;;;;19.60;99.90;;;;;;5073775;28;19948;-70
2022/10/20 13:16:43;;;;;;;;;;;19.70;99.90;;;;;;5075354;28;19952;-70
2022/10/20 13:19:15;;;;;;;;;;;19.80;99.90;;;;;;5075267;28;19920;-69
2022/10/20 13:21:41;;;;;;;;;;;20.00;99.90;;;;;;5073975;28;20202;-70
2022/10/20 13:24:15;;;;;;;;;;;20.20;99.90;;;;;;5107828;28;19919;-69
2022/10/20 13:26:49;;;;;;;;;;;20.30;99.90;;;;;;5075200;28;19908;-69
2022/10/20 13:29:19;;;;;;;;;;;20.50;99.90;;;;;;5075162;28;19958;-69
2022/10/20 13:31:50;;;;;;;;;;;20.60;99.90;;;;;;5075185;28;19944;-69
2022/10/20 13:34:39;;;;;;;;;;;20.70;99.90;;;;;;5074888;28;19913;-69
2022/10/20 13:37:04;;;;;;;;;;;20.60;99.90;;;;;;5079998;28;20007;-69
2022/10/20 13:39:45;;;;;;;;;;;20.60;99.90;;;;;;5074902;28;20011;-69
2022/10/20 13:42:29;;;;;;;;;;;20.60;99.90;;;;;;5074830;28;20272;-69
2022/10/20 13:45:11;;;;;;;;;;;20.50;99.90;;;;;;5074892;28;19908;-69
2022/10/20 13:47:47;;;;;;;;;;;20.50;99.00;;;;;;5074868;28;19912;-69
2022/10/20 13:50:19;;;;;;;;;;;20.50;99.30;;;;;;5074573;28;20280;-69
2022/10/20 13:52:55;;;;;;;;;;;20.40;98.90;;;;;;5057616;28;19913;-69
2022/10/20 13:55:23;;;;;;;;;;;20.30;99.60;;;;;;5063551;28;19913;-69
2022/10/20 13:57:50;;;;;;;;;;;20.30;99.90;;;;;;5074085;28;20418;-69
2022/10/20 14:00:17;;;;;;;;;;;20.30;99.90;;;;;;5073097;28;19954;-70
2022/10/20 14:03:03;;;;;;;;;;;20.30;99.90;;;;;;5073124;28;19916;-69
2022/10/20 14:05:35;;;;;;;;;;;20.30;99.90;;;;;;5076194;28;19959;-69
2022/10/20 14:08:01;;;;;;;;;;;20.40;99.90;;;;;;5073098;28;19948;-69
2022/10/20 14:10:26;;;;;;;;;;;20.40;99.70;;;;;;5074200;28;19924;-69
2022/10/20 14:12:53;;;;;;;;;;;20.30;99.30;;;;;;5074232;28;19908;-69
2022/10/20 14:15:29;;;;;;;;;;;20.30;99.90;;;;;;5073304;28;20010;-72
2022/10/20 14:18:02;;;;;;;;;;;20.30;99.70;;;;;;5067734;28;20368;-69
2022/10/20 14:20:30;;;;;;;;;;;20.20;99.40;;;;;;5088918;28;20371;-69
2022/10/20 14:22:57;;;;;;;;;;;20.30;99.90;;;;;;5073672;28;19920;-69
2022/10/20 14:25:22;;;;;;;;;;;20.30;99.90;;;;;;5074458;28;19955;-69
2022/10/20 14:27:50;;;;;;;;;;;20.20;99.90;;;;;;5074065;28;19913;-69
2022/10/20 14:30:16;;;;;;;;;;;20.20;99.90;;;;;;5073998;28;19951;-69